Aikoumaru No.8 — JD3288 — position and weather

sailwx.info

Track history (hours):
 
Tides and Currents Weather Stations Pressure Air Temp Water Temp Dewpoint Dewpoint Depression Visibility Wind Speed Wind Dir Waves Ship Positions

Aikoumaru No.8

Last reported at 2014-Aug-16 16:33 UTC. Time now 2014-Aug-20 14:45 UTC.
Position N 34°06' E 135°03'.

Length 74 m; draft 4.5 m.

Type: Cargo ship. MMSI: 431003153.

Date/timePositionNaut miles runAvg speedWind from/ knotsBaromVisibWave heightAir tempDewpointWater temp
2014-Aug-16 16:33N 34°06' E 135°03'1110.1
2014-Aug-16 15:30N 34°17' E 135°04'1010.2
2014-Aug-16 14:33N 34°25' E 135°09'1211.3
2014-Aug-16 13:31N 34°34' E 135°19'6 6.0
2014-Aug-16 12:28N 34°34' E 135°27'0 0.0
2014-Aug-16 10:26N 34°34' E 135°27'2 1.2
2014-Aug-16 09:12N 34°35' E 135°28'0 0.0
2014-Aug-16 08:24N 34°35' E 135°28'0 0.0
2014-Aug-16 07:23N 34°35' E 135°28'0 0.0
2014-Aug-16 06:17N 34°35' E 135°28'0 0.0
2014-Aug-16 05:23N 34°35' E 135°28'0 0.0
2014-Aug-16 04:29N 34°35' E 135°28'0 0.0
2014-Aug-16 03:29N 34°35' E 135°28'0 0.0
2014-Aug-16 02:29N 34°35' E 135°28'0 0.0
2014-Aug-16 01:23N 34°35' E 135°28'0 0.0
2014-Aug-16 00:23N 34°35' E 135°28'0 0.0
2014-Aug-15 21:14N 34°35' E 135°28'2 0.3
2014-Aug-15 16:06N 34°34' E 135°27'0 0.0
2014-Aug-15 15:30N 34°34' E 135°27'0 0.0
2014-Aug-15 14:30N 34°34' E 135°27'0 0.0
2014-Aug-15 13:33N 34°34' E 135°27'0 0.0
2014-Aug-15 12:33N 34°34' E 135°27'0 0.0
2014-Aug-15 11:33N 34°34' E 135°27'0 0.0
2014-Aug-15 10:33N 34°34' E 135°27'0 0.0
2014-Aug-15 09:33N 34°34' E 135°27'0 0.0
2014-Aug-15 08:33N 34°34' E 135°27'0 0.0
2014-Aug-15 07:33N 34°34' E 135°27'1 0.7
2014-Aug-15 06:23N 34°35' E 135°27'1 0.0
2014-Aug-14 01:22N 34°35' E 135°28'1 1.0
2014-Aug-14 00:30N 34°35' E 135°27'0 0.0
2014-Aug-13 22:24N 34°35' E 135°27'0 0.0
2014-Aug-13 21:24N 34°35' E 135°27'1 1.2
2014-Aug-13 20:32N 34°34' E 135°27'1 0.1
2014-Aug-13 14:29N 34°35' E 135°27'910.0
2014-Aug-13 13:34N 34°35' E 135°16'1010.5
2014-Aug-13 12:34N 34°36' E 135°03'  
Track history (hours):
 
Tides and Currents Weather Stations Pressure Air Temp Water Temp Dewpoint Dewpoint Depression Visibility Wind Speed Wind Dir Waves Ship Positions

Aikoumaru No.8

Last reported at 2014-Aug-16 16:33 UTC. Time now 2014-Aug-20 14:45 UTC.
Position N 34°06' E 135°03'.

Length 74 m; draft 4.5 m.

Type: Cargo ship. MMSI: 431003153.

Date/timePositionNaut miles runAvg speedWind from/ knotsBaromVisibWave heightAir tempDewpointWater temp
2014-Aug-16 16:33N 34°06' E 135°03'1110.1
2014-Aug-16 15:30N 34°17' E 135°04'1010.2
2014-Aug-16 14:33N 34°25' E 135°09'1211.3
2014-Aug-16 13:31N 34°34' E 135°19'6 6.0
2014-Aug-16 12:28N 34°34' E 135°27'0 0.0
2014-Aug-16 10:26N 34°34' E 135°27'2 1.2
2014-Aug-16 09:12N 34°35' E 135°28'0 0.0
2014-Aug-16 08:24N 34°35' E 135°28'0 0.0
2014-Aug-16 07:23N 34°35' E 135°28'0 0.0
2014-Aug-16 06:17N 34°35' E 135°28'0 0.0
2014-Aug-16 05:23N 34°35' E 135°28'0 0.0
2014-Aug-16 04:29N 34°35' E 135°28'0 0.0
2014-Aug-16 03:29N 34°35' E 135°28'0 0.0
2014-Aug-16 02:29N 34°35' E 135°28'0 0.0
2014-Aug-16 01:23N 34°35' E 135°28'0 0.0
2014-Aug-16 00:23N 34°35' E 135°28'0 0.0
2014-Aug-15 21:14N 34°35' E 135°28'2 0.3
2014-Aug-15 16:06N 34°34' E 135°27'0 0.0
2014-Aug-15 15:30N 34°34' E 135°27'0 0.0
2014-Aug-15 14:30N 34°34' E 135°27'0 0.0
2014-Aug-15 13:33N 34°34' E 135°27'0 0.0
2014-Aug-15 12:33N 34°34' E 135°27'0 0.0
2014-Aug-15 11:33N 34°34' E 135°27'0 0.0
2014-Aug-15 10:33N 34°34' E 135°27'0 0.0
2014-Aug-15 09:33N 34°34' E 135°27'0 0.0
2014-Aug-15 08:33N 34°34' E 135°27'0 0.0
2014-Aug-15 07:33N 34°34' E 135°27'1 0.7
2014-Aug-15 06:23N 34°35' E 135°27'1 0.0
2014-Aug-14 01:22N 34°35' E 135°28'1 1.0
2014-Aug-14 00:30N 34°35' E 135°27'0 0.0
2014-Aug-13 22:24N 34°35' E 135°27'0 0.0
2014-Aug-13 21:24N 34°35' E 135°27'1 1.2
2014-Aug-13 20:32N 34°34' E 135°27'1 0.1
2014-Aug-13 14:29N 34°35' E 135°27'910.0
2014-Aug-13 13:34N 34°35' E 135°16'1010.5
2014-Aug-13 12:34N 34°36' E 135°03'  

Dump ship's entire track history